Indian River Inlet Bridge North DE USA current weather conditions

sailwx.info

Wind from 230 at 5 knots gusting 6

Last reported at 2020-Jan-26 01:55 UTC.
Time now 2020-Jan-26 02:36 UTC

Location: N 38°37' W 075°04'.
View on Google Maps.

See reports from other nearby stations

  
Tides and Currents Weather Stations Pressure Air Temp Water Temp Dewpoint Dewpoint Depression Visibility Wind Speed Wind Dir Waves Ship Positions
date/time (UTC)wind fromknots sea level pressurealtimeterstation pressurevisibilityair tempwater tempwave heightnotes
2020-Jan-26 01:55 230 5 gusting 6
2020-Jan-26 01:50 230 5 gusting 6
2020-Jan-26 01:45 230 5 gusting 7
2020-Jan-26 01:40 235 5 gusting 7
2020-Jan-26 01:35 240 5 gusting 7
2020-Jan-26 01:30 240 6 gusting 7
2020-Jan-26 01:25 240 5 gusting 7
2020-Jan-26 01:20 245 5 gusting 7
2020-Jan-26 01:15 235 5 gusting 7
2020-Jan-26 01:10 235 4 gusting 6
2020-Jan-26 01:05 230 4 gusting 6
2020-Jan-26 01:00 225 4 gusting 6
2020-Jan-26 00:55 235 5 gusting 8
2020-Jan-26 00:50 250 6 gusting 8
2020-Jan-26 00:45 250 6 gusting 8
2020-Jan-26 00:40 255 6 gusting 8
2020-Jan-26 00:35 255 6 gusting 8
2020-Jan-26 00:30 260 5 gusting 8
2020-Jan-26 00:25 255 6 gusting 9
2020-Jan-26 00:20 260 7 gusting 9
2020-Jan-26 00:15 260 6 gusting 9
2020-Jan-26 00:10 260 7 gusting 9
2020-Jan-26 00:05 255 7 gusting 9
2020-Jan-26 00:00 265 7 gusting 9
2020-Jan-25 23:55 265 8 gusting 10
2020-Jan-25 23:50 265 7 gusting 11
2020-Jan-25 23:45 265 8 gusting 13
2020-Jan-25 23:40 265 9 gusting 14
2020-Jan-25 23:35 270 9 gusting 14
2020-Jan-25 23:30 280 7 gusting 12
2020-Jan-25 23:25 280 7 gusting 12
2020-Jan-25 23:20 270 9 gusting 14
2020-Jan-25 23:15 275 10 gusting 14
2020-Jan-25 23:10 270 9 gusting 11
2020-Jan-25 23:05 265 8 gusting 11
2020-Jan-25 23:00 260 8 gusting 12
2020-Jan-25 22:55 250 9 gusting 13
2020-Jan-25 22:50 245 11 gusting 15
2020-Jan-25 22:45 235 9 gusting 15
2020-Jan-25 22:40 250 10 gusting 13
2020-Jan-25 22:35 260 5 gusting 7
2020-Jan-25 22:30 245 6 gusting 8
2020-Jan-25 22:25 255 6 gusting 8
2020-Jan-25 22:20 240 6 gusting 9
2020-Jan-25 22:15 250 7 gusting 10
2020-Jan-25 22:10 240 7 gusting 12
2020-Jan-25 22:05 245 8 gusting 13
2020-Jan-25 22:00 235 9 gusting 13
2020-Jan-25 21:55 250 8 gusting 13
2020-Jan-25 21:50 260 9 gusting 14
2020-Jan-25 21:45 255 10 gusting 14
2020-Jan-25 21:40 250 8 gusting 14
2020-Jan-25 21:35 255 10 gusting 14
2020-Jan-25 21:30 260 12 gusting 15
2020-Jan-25 21:25 250 11 gusting 15
2020-Jan-25 21:20 245 8 gusting 16
2020-Jan-25 21:15 240 12 gusting 16
2020-Jan-25 21:10 250 9 gusting 14
2020-Jan-25 21:05 235 6 gusting 9
2020-Jan-25 21:00 235 6 gusting 8
2020-Jan-25 20:55 230 5 gusting 8
2020-Jan-25 20:50 230 6 gusting 10
2020-Jan-25 20:45 230 6 gusting 13
2020-Jan-25 20:40 235 7 gusting 13
2020-Jan-25 20:35 240 9 gusting 15
2020-Jan-25 20:30 225 10 gusting 15
2020-Jan-25 20:25 240 12 gusting 15
2020-Jan-25 20:20 230 8 gusting 15
2020-Jan-25 20:15 230 11 gusting 15
2020-Jan-25 20:10 225 9 gusting 15
2020-Jan-25 20:05 220 9 gusting 15
2020-Jan-25 20:00 215 10 gusting 15
2020-Jan-25 19:55 220 10 gusting 16
2020-Jan-25 19:50 225 10 gusting 16
2020-Jan-25 19:45 215 12 gusting 16
2020-Jan-25 19:40 215 11 gusting 16
2020-Jan-25 19:35 215 11 gusting 14
2020-Jan-25 19:30 215 9 gusting 13
2020-Jan-25 19:25 210 6 gusting 9
2020-Jan-25 19:20 200 4 gusting 8
2020-Jan-25 19:15 180 4 gusting 6
2020-Jan-25 19:10 140 1 gusting 3
2020-Jan-25 19:05 120 2 gusting 6
2020-Jan-25 19:00 110 4 gusting 6
2020-Jan-25 18:55 095 4 gusting 6
2020-Jan-25 18:50 105 4 gusting 6
2020-Jan-25 18:45 105 5 gusting 7
2020-Jan-25 18:40 115 6 gusting 8
2020-Jan-25 18:35 105 6 gusting 9
2020-Jan-25 18:30 100 8 gusting 10
2020-Jan-25 18:25 105 8 gusting 10
2020-Jan-25 18:20 100 7 gusting 8
2020-Jan-25 18:15 100 4 gusting 6
2020-Jan-25 18:10 135 4 gusting 7
2020-Jan-25 18:05 115 5 gusting 9
2020-Jan-25 18:00 110 7 gusting 9
2020-Jan-25 17:55 110 7 gusting 9
2020-Jan-25 17:50 115 7 gusting 9
2020-Jan-25 17:45 110 7 gusting 8
2020-Jan-25 17:40 105 6 gusting 9
2020-Jan-25 17:35 110 8 gusting 9
2020-Jan-25 17:30 105 6 gusting 8
2020-Jan-25 17:25 100 6 gusting 7
2020-Jan-25 17:20 100 6 gusting 7
2020-Jan-25 17:15 100 6 gusting 7
2020-Jan-25 17:10 110 4 gusting 11
2020-Jan-25 17:05 125 7 gusting 11
2020-Jan-25 17:00 120 9 gusting 12
2020-Jan-25 16:55 120 10 gusting 12
2020-Jan-25 16:50 110 7 gusting 9
2020-Jan-25 16:45 095 6 gusting 7
2020-Jan-25 16:40 095 6 gusting 7
2020-Jan-25 16:35 100 6 gusting 7
2020-Jan-25 16:30 075 6 gusting 7
2020-Jan-25 16:25 075 4 gusting 5
2020-Jan-25 16:20 080 3 gusting 4
2020-Jan-25 16:15 090 2 gusting 5
2020-Jan-25 16:10 145 3 gusting 6
2020-Jan-25 16:05 170 5 gusting 6
2020-Jan-25 16:00 170 2 gusting 7
2020-Jan-25 15:55 185 4 gusting 7
2020-Jan-25 15:50 200 5 gusting 10
2020-Jan-25 15:45 210 6 gusting 11
2020-Jan-25 15:40 215 7 gusting 11
2020-Jan-25 15:35 205 8 gusting 13
2020-Jan-25 15:30 205 9 gusting 13
2020-Jan-25 15:25 215 8 gusting 13
2020-Jan-25 15:20 165 7 gusting 14
2020-Jan-25 15:15 140 8 gusting 16
2020-Jan-25 15:10 125 12 gusting 16
2020-Jan-25 15:05 105 10 gusting 14
2020-Jan-25 15:00 100 10 gusting 15
2020-Jan-25 14:55 120 13 gusting 15
2020-Jan-25 14:50 120 11 gusting 17
2020-Jan-25 14:45 120 13 gusting 17
2020-Jan-25 14:40 115 9 gusting 16
2020-Jan-25 14:35 145 11 gusting 16
2020-Jan-25 14:30 155 9 gusting 14
2020-Jan-25 14:25 125 10 gusting 14
2020-Jan-25 14:20 155 10 gusting 17
2020-Jan-25 14:15 155 7 gusting 28
2020-Jan-25 14:10 070 17 gusting 28
2020-Jan-25 14:05 070 21 gusting 25
2020-Jan-25 14:00 070 21 gusting 25
2020-Jan-25 13:55 070 22 gusting 25
2020-Jan-25 13:50 065 21 gusting 25
2020-Jan-25 13:45 065 21 gusting 26
2020-Jan-25 13:40 065 22 gusting 26
2020-Jan-25 13:35 065 22 gusting 26
2020-Jan-25 13:30 070 21 gusting 25
2020-Jan-25 13:25 065 22 gusting 25
2020-Jan-25 13:20 070 21 gusting 24
2020-Jan-25 13:15 070 21 gusting 24
2020-Jan-25 13:10 070 20 gusting 23
2020-Jan-25 13:05 070 20 gusting 23
2020-Jan-25 13:00 075 19 gusting 22
2020-Jan-25 12:55 070 19 gusting 23
2020-Jan-25 12:50 075 20 gusting 24
2020-Jan-25 12:45 075 20 gusting 24
2020-Jan-25 12:40 070 19 gusting 23
2020-Jan-25 12:35 070 19 gusting 23
2020-Jan-25 12:30 075 18 gusting 21
2020-Jan-25 12:25 080 13 gusting 16
2020-Jan-25 12:20 090 4 gusting 11
2020-Jan-25 12:15 100 6 gusting 18
2020-Jan-25 12:10 170 11 gusting 18
2020-Jan-25 12:05 130 5 gusting 12
2020-Jan-25 12:00 165 8 gusting 12
2020-Jan-25 11:55 150 6 gusting 24
2020-Jan-25 11:50 150 10 gusting 27
2020-Jan-25 11:45 075 24 gusting 27
2020-Jan-25 11:40 075 23 gusting 27
2020-Jan-25 11:35 070 23 gusting 28
2020-Jan-25 11:30 065 25 gusting 28
2020-Jan-25 11:25 070 22 gusting 26
2020-Jan-25 11:20 070 21 gusting 26
2020-Jan-25 11:15 070 22 gusting 24
2020-Jan-25 11:10 070 22 gusting 24
2020-Jan-25 11:05 070 21 gusting 23
2020-Jan-25 11:00 070 20 gusting 25
2020-Jan-25 10:55 070 22 gusting 25
2020-Jan-25 10:50 070 22 gusting 25
2020-Jan-25 10:45 070 22 gusting 27
2020-Jan-25 10:40 070 23 gusting 28
2020-Jan-25 10:35 070 24 gusting 28
2020-Jan-25 10:30 080 21 gusting 26
2020-Jan-25 10:25 075 21 gusting 26
2020-Jan-25 10:20 080 17 gusting 24
2020-Jan-25 10:15 070 21 gusting 24
2020-Jan-25 10:10 075 19 gusting 23
2020-Jan-25 10:05 075 19 gusting 27
2020-Jan-25 10:00 070 19 gusting 27
2020-Jan-25 09:55 070 21 gusting 26
2020-Jan-25 09:50 065 22 gusting 26
2020-Jan-25 09:45 070 22 gusting 25
2020-Jan-25 09:40 070 21 gusting 25
2020-Jan-25 09:35 065 21 gusting 24
2020-Jan-25 09:30 065 21 gusting 24
2020-Jan-25 09:25 065 21 gusting 24
2020-Jan-25 09:20 065 21 gusting 24
2020-Jan-25 09:15 065 20 gusting 23
2020-Jan-25 09:10 065 21 gusting 23
2020-Jan-25 09:05 065 20 gusting 27
2020-Jan-25 09:00 065 21 gusting 27
2020-Jan-25 08:55 065 19 gusting 23
2020-Jan-25 08:50 070 18 gusting 23
2020-Jan-25 08:45 065 19 gusting 23
2020-Jan-25 08:40 075 17 gusting 23
2020-Jan-25 08:35 065 19 gusting 23
2020-Jan-25 08:30 065 19 gusting 23
2020-Jan-25 08:25 065 20 gusting 23
2020-Jan-25 08:20 065 20 gusting 23
2020-Jan-25 08:15 065 20 gusting 23
2020-Jan-25 08:10 060 20 gusting 23
2020-Jan-25 08:05 065 20 gusting 24
2020-Jan-25 08:00 065 20 gusting 24
2020-Jan-25 07:55 065 21 gusting 24
2020-Jan-25 07:50 065 21 gusting 25
2020-Jan-25 07:45 065 21 gusting 25
2020-Jan-25 07:40 065 21 gusting 25
2020-Jan-25 07:35 060 21 gusting 25
2020-Jan-25 07:30 060 21 gusting 24
2020-Jan-25 07:25 065 19 gusting 24
2020-Jan-25 07:20 065 19 gusting 23
2020-Jan-25 07:15 065 19 gusting 23
2020-Jan-25 07:10 060 19 gusting 23
2020-Jan-25 07:05 060 20 gusting 24
2020-Jan-25 07:00 060 19 gusting 24
2020-Jan-25 06:55 060 20 gusting 22
2020-Jan-25 06:50 060 20 gusting 23
2020-Jan-25 06:45 055 20 gusting 24
2020-Jan-25 06:40 055 20 gusting 24
2020-Jan-25 06:35 055 20 gusting 24
2020-Jan-25 06:30 055 20 gusting 23
2020-Jan-25 06:25 055 19 gusting 23
2020-Jan-25 06:20 055 20 gusting 23
2020-Jan-25 06:15 055 20 gusting 22
2020-Jan-25 06:10 055 20 gusting 22
2020-Jan-25 06:05 060 20 gusting 22
2020-Jan-25 06:00 060 19 gusting 22
2020-Jan-25 05:55 060 19 gusting 22
2020-Jan-25 05:50 060 19 gusting 22
2020-Jan-25 05:45 065 19 gusting 22
2020-Jan-25 05:40 065 19 gusting 22
2020-Jan-25 05:35 060 17 gusting 22
2020-Jan-25 05:30 060 18 gusting 21
2020-Jan-25 05:25 060 17 gusting 21
2020-Jan-25 05:20 055 18 gusting 20
2020-Jan-25 05:15 055 17 gusting 20
2020-Jan-25 05:10 055 16 gusting 20
2020-Jan-25 05:05 055 17 gusting 21
2020-Jan-25 05:00 055 17 gusting 21
2020-Jan-25 04:55 060 17 gusting 19
2020-Jan-25 04:50 060 16 gusting 19
2020-Jan-25 04:45 055 16 gusting 18
2020-Jan-25 04:40 055 15 gusting 19
2020-Jan-25 04:35 055 16 gusting 19
2020-Jan-25 04:30 060 16 gusting 20
2020-Jan-25 04:25 055 17 gusting 20
2020-Jan-25 04:20 060 15 gusting 19
2020-Jan-25 04:15 055 16 gusting 19
2020-Jan-25 04:10 060 16 gusting 20
2020-Jan-25 04:05 055 17 gusting 20
2020-Jan-25 04:00 055 17 gusting 21
2020-Jan-25 03:55 055 19 gusting 21
2020-Jan-25 03:50 055 17 gusting 20
2020-Jan-25 03:45 055 17 gusting 19
2020-Jan-25 03:40 060 15 gusting 17
2020-Jan-25 03:35 060 14 gusting 16
2020-Jan-25 03:30 060 13 gusting 17
2020-Jan-25 03:25 055 14 gusting 17
2020-Jan-25 03:20 055 15 gusting 18
2020-Jan-25 03:15 055 16 gusting 18
2020-Jan-25 03:10 055 15 gusting 17
2020-Jan-25 03:05 050 14 gusting 16
2020-Jan-25 03:00 050 14 gusting 16
2020-Jan-25 02:55 050 14 gusting 16
2020-Jan-25 02:50 050 13 gusting 16
2020-Jan-25 02:45 055 13 gusting 16
2020-Jan-25 02:40 055 13 gusting 15
2020-Jan-25 02:35 055 13 gusting 15
2020-Jan-25 02:30 055 13 gusting 15
2020-Jan-25 02:25 055 14 gusting 15
2020-Jan-25 02:20 050 13 gusting 16
2020-Jan-25 02:15 055 13 gusting 16
2020-Jan-25 02:10 050 13 gusting 15
2020-Jan-25 02:05 050 13 gusting 16
2020-Jan-25 02:00 050 13 gusting 16
2020-Jan-25 01:55 050 14 gusting 15
2020-Jan-25 01:50 055 13 gusting 15
2020-Jan-25 01:45 055 13 gusting 15
2020-Jan-25 01:40 055 13 gusting 14
2020-Jan-25 01:35 055 12 gusting 13
2020-Jan-25 01:30 060 11 gusting 12
2020-Jan-25 01:25 060 11 gusting 12
2020-Jan-25 01:20 060 11 gusting 13
2020-Jan-25 01:15 065 11 gusting 15
2020-Jan-25 01:10 065 12 gusting 17
2020-Jan-25 01:05 050 14 gusting 18
2020-Jan-25 01:00 050 15 gusting 18
2020-Jan-25 00:55 050 15 gusting 18
2020-Jan-25 00:50 050 16 gusting 19
2020-Jan-25 00:45 050 16 gusting 19
2020-Jan-25 00:40 050 17 gusting 19
2020-Jan-25 00:35 055 16 gusting 19
2020-Jan-25 00:30 055 17 gusting 19
2020-Jan-25 00:25 055 16 gusting 19
2020-Jan-25 00:20 055 15 gusting 16
2020-Jan-25 00:15 055 14 gusting 17
2020-Jan-25 00:10 055 14 gusting 18
2020-Jan-25 00:05 055 14 gusting 18
2020-Jan-25 00:00 055 16 gusting 20
2020-Jan-24 23:55 055 17 gusting 21
2020-Jan-24 23:50 055 18 gusting 21
2020-Jan-24 23:45 055 18 gusting 21
2020-Jan-24 23:40 055 18 gusting 21
2020-Jan-24 23:35 055 18 gusting 21
2020-Jan-24 23:30 055 18 gusting 21
2020-Jan-24 23:25 055 18 gusting 21
2020-Jan-24 23:20 055 18 gusting 21
2020-Jan-24 23:15 055 17 gusting 21
2020-Jan-24 23:10 055 17 gusting 20
2020-Jan-24 23:05 055 18 gusting 20
2020-Jan-24 23:00 055 17 gusting 20
2020-Jan-24 22:55 055 17 gusting 20
2020-Jan-24 22:50 050 17 gusting 20
2020-Jan-24 22:45 050 16 gusting 18
2020-Jan-24 22:40 050 15 gusting 17
2020-Jan-24 22:35 050 14 gusting 15
2020-Jan-24 22:30 045 13 gusting 15
2020-Jan-24 22:25 045 13 gusting 14
2020-Jan-24 22:20 045 12 gusting 13
2020-Jan-24 22:15 045 12 gusting 15
2020-Jan-24 22:10 045 13 gusting 15
2020-Jan-24 22:05 045 13 gusting 15
2020-Jan-24 22:00 045 13 gusting 15
2020-Jan-24 21:55 045 13 gusting 15
2020-Jan-24 21:50 045 13 gusting 15
2020-Jan-24 21:45 050 13 gusting 15
2020-Jan-24 21:40 050 13 gusting 14
2020-Jan-24 21:35 050 12 gusting 15
2020-Jan-24 21:30 050 13 gusting 16
2020-Jan-24 21:25 050 13 gusting 16
2020-Jan-24 21:20 050 14 gusting 16
2020-Jan-24 21:15 050 14 gusting 16
2020-Jan-24 21:10 050 13 gusting 16
2020-Jan-24 21:05 050 14 gusting 17
2020-Jan-24 21:00 050 14 gusting 18
2020-Jan-24 20:55 050 15 gusting 18
2020-Jan-24 20:50 050 14 gusting 17
2020-Jan-24 20:45 045 14 gusting 17
2020-Jan-24 20:40 050 15 gusting 17
2020-Jan-24 20:35 045 14 gusting 17
2020-Jan-24 20:30 045 14 gusting 17
2020-Jan-24 20:25 050 15 gusting 19
2020-Jan-24 20:20 050 15 gusting 19
2020-Jan-24 20:15 050 15 gusting 18
2020-Jan-24 20:10 045 16 gusting 18
2020-Jan-24 20:05 045 16 gusting 17
2020-Jan-24 20:00 040 15 gusting 17
2020-Jan-24 19:55 040 15 gusting 17
2020-Jan-24 19:50 040 15 gusting 17
2020-Jan-24 19:45 040 14 gusting 17
2020-Jan-24 19:40 035 14 gusting 16
2020-Jan-24 19:35 035 13 gusting 14
2020-Jan-24 19:30 035 12 gusting 15
2020-Jan-24 19:25 035 13 gusting 15
2020-Jan-24 19:20 035 13 gusting 15
2020-Jan-24 19:15 035 12 gusting 14
2020-Jan-24 19:10 030 11 gusting 14
2020-Jan-24 19:05 030 12 gusting 14
2020-Jan-24 19:00 030 13 gusting 14
2020-Jan-24 18:55 030 13 gusting 14
2020-Jan-24 18:50 035 11 gusting 14
2020-Jan-24 18:45 035 12 gusting 14
2020-Jan-24 18:40 035 12 gusting 13
2020-Jan-24 18:35 035 12 gusting 13
2020-Jan-24 18:30 035 12 gusting 13
2020-Jan-24 18:25 030 12 gusting 13
2020-Jan-24 18:20 030 12 gusting 13
2020-Jan-24 18:15 030 12 gusting 14
2020-Jan-24 18:10 030 13 gusting 14
2020-Jan-24 18:05 030 12 gusting 14
2020-Jan-24 18:00 030 12 gusting 14
2020-Jan-24 17:55 030 12 gusting 13
2020-Jan-24 17:50 030 11 gusting 13
2020-Jan-24 17:45 025 10 gusting 12
2020-Jan-24 17:40 025 10 gusting 12
2020-Jan-24 17:35 020 10 gusting 11
2020-Jan-24 17:30 020 10 gusting 11
2020-Jan-24 17:25 020 9 gusting 12
2020-Jan-24 17:20 020 10 gusting 13
2020-Jan-24 17:15 015 11 gusting 13
2020-Jan-24 17:10 015 12 gusting 13
2020-Jan-24 17:05 020 11 gusting 14
2020-Jan-24 17:00 020 12 gusting 14
2020-Jan-24 16:55 020 12 gusting 13
2020-Jan-24 16:50 015 10 gusting 12
2020-Jan-24 16:45 010 9 gusting 11
2020-Jan-24 16:40 010 9 gusting 11
2020-Jan-24 16:35 010 9 gusting 11
2020-Jan-24 16:30 010 9 gusting 11
2020-Jan-24 16:25 005 9 gusting 10
2020-Jan-24 16:20
2020-Jan-24 16:15
2020-Jan-24 16:10
2020-Jan-24 16:05
2020-Jan-24 16:00 005 8 gusting 9
2020-Jan-24 15:55 005 7 gusting 9
2020-Jan-24 15:50 005 7 gusting 10
2020-Jan-24 15:45 005 8 gusting 10
2020-Jan-24 15:40
2020-Jan-24 15:35
2020-Jan-24 15:30
2020-Jan-24 15:25 355 6 gusting 8
2020-Jan-24 15:20 355 6 gusting 8
2020-Jan-24 15:15 350 6 gusting 8
2020-Jan-24 15:10 350 6 gusting 8
2020-Jan-24 15:05 350 5 gusting 6
2020-Jan-24 15:00 355 5 gusting 6
2020-Jan-24 14:55 350 5 gusting 7
2020-Jan-24 14:50 345 5 gusting 7
2020-Jan-24 14:45 350 5 gusting 6
2020-Jan-24 14:40 355 5 gusting 7
2020-Jan-24 14:35 355 6 gusting 7
2020-Jan-24 14:30 355 6 gusting 8
2020-Jan-24 14:25 355 7 gusting 8
2020-Jan-24 14:20 350 6 gusting 7
2020-Jan-24 14:15 355 6 gusting 7
2020-Jan-24 14:10 350 6 gusting 7
2020-Jan-24 14:05 345 6 gusting 7
2020-Jan-24 14:00 345 6 gusting 7
2020-Jan-24 13:55 340 6 gusting 7
2020-Jan-24 13:50 335 5 gusting 6
2020-Jan-24 13:45 340 5 gusting 5
2020-Jan-24 13:40 340 4 gusting 5
2020-Jan-24 13:35 345 4 gusting 6
2020-Jan-24 13:30 355 5 gusting 6
2020-Jan-24 13:25 355 5 gusting 6
2020-Jan-24 13:20
2020-Jan-24 13:15
2020-Jan-24 13:10
2020-Jan-24 13:05
2020-Jan-24 13:00 355 5 gusting 6
2020-Jan-24 12:55 350 4 gusting 7
2020-Jan-24 12:50 355 5 gusting 7
2020-Jan-24 12:45 355 6 gusting 8
2020-Jan-24 12:40 005 7 gusting 9
2020-Jan-24 12:35 010 7 gusting 10
2020-Jan-24 12:30 010 8 gusting 11
2020-Jan-24 12:25 010 9 gusting 11
2020-Jan-24 12:20 010 9 gusting 11
2020-Jan-24 12:15 010 9 gusting 11
2020-Jan-24 12:10 005 9 gusting 11
2020-Jan-24 12:05 005 10 gusting 11
2020-Jan-24 12:00 005 10 gusting 12
2020-Jan-24 11:55 010 10 gusting 12
2020-Jan-24 11:50 010 10 gusting 11
2020-Jan-24 11:45 005 9 gusting 11
2020-Jan-24 11:40
2020-Jan-24 11:35
2020-Jan-24 11:30 355 9 gusting 10
2020-Jan-24 11:25
2020-Jan-24 11:20
2020-Jan-24 11:15
2020-Jan-24 11:10 355 9 gusting 10
2020-Jan-24 11:05 355 8 gusting 10
2020-Jan-24 11:00 355 9 gusting 10
2020-Jan-24 10:55
2020-Jan-24 10:50 355 9 gusting 11
2020-Jan-24 10:45 355 9 gusting 11
2020-Jan-24 10:40 355 9 gusting 11
2020-Jan-24 10:35 350 9 gusting 10
2020-Jan-24 10:30 345 9 gusting 11
2020-Jan-24 10:25 345 9 gusting 11
2020-Jan-24 10:20 345 9 gusting 11
2020-Jan-24 10:15 350 9 gusting 11
2020-Jan-24 10:10 345 10 gusting 11
2020-Jan-24 10:05 350 9 gusting 10
2020-Jan-24 10:00 350 8 gusting 10
2020-Jan-24 09:55 345 8 gusting 10
2020-Jan-24 09:50 350 8 gusting 10
2020-Jan-24 09:45 350 8 gusting 10
2020-Jan-24 09:40 355 8 gusting 10
2020-Jan-24 09:35 350 8 gusting 9
2020-Jan-24 09:30 350 7 gusting 9
2020-Jan-24 09:25 355 8 gusting 9
2020-Jan-24 09:20 355 7 gusting 9
2020-Jan-24 09:15 350 7 gusting 9
2020-Jan-24 09:10 350 8 gusting 9
2020-Jan-24 09:05 345 7 gusting 9
2020-Jan-24 09:00 350 7 gusting 9
2020-Jan-24 08:55 355 8 gusting 9
2020-Jan-24 08:50 355 8 gusting 9
2020-Jan-24 08:45 355 8 gusting 10
2020-Jan-24 08:40
2020-Jan-24 08:35 355 8 gusting 10
2020-Jan-24 08:30 355 8 gusting 10
2020-Jan-24 08:25
2020-Jan-24 08:20
2020-Jan-24 08:15 005 8 gusting 11
2020-Jan-24 08:10 005 9 gusting 11
2020-Jan-24 08:05
2020-Jan-24 08:00
2020-Jan-24 07:55 355 8 gusting 10
2020-Jan-24 07:50
2020-Jan-24 07:45 355 10 gusting 12
2020-Jan-24 07:40 355 10 gusting 13
2020-Jan-24 07:35
2020-Jan-24 07:30
2020-Jan-24 07:25
2020-Jan-24 07:20 355 10 gusting 12
2020-Jan-24 07:15 355 10 gusting 12
2020-Jan-24 07:10 355 10 gusting 11
2020-Jan-24 07:05 355 9 gusting 11
2020-Jan-24 07:00 350 8 gusting 11
2020-Jan-24 06:55 350 8 gusting 10
2020-Jan-24 06:50 350 8 gusting 10
2020-Jan-24 06:45 345 8 gusting 10
2020-Jan-24 06:40 345 8 gusting 10
2020-Jan-24 06:35 340 8 gusting 9
2020-Jan-24 06:30 340 8 gusting 9
2020-Jan-24 06:25 340 8 gusting 9
2020-Jan-24 06:20 340 8 gusting 9
2020-Jan-24 06:15 340 8 gusting 9
2020-Jan-24 06:10 335 7 gusting 8
2020-Jan-24 06:05 345 7 gusting 9
2020-Jan-24 06:00 340 7 gusting 9
2020-Jan-24 05:55 345 7 gusting 9
2020-Jan-24 05:50 345 7 gusting 10
2020-Jan-24 05:45 350 8 gusting 10
2020-Jan-24 05:40 355 9 gusting 10
2020-Jan-24 05:35 355 8 gusting 10
2020-Jan-24 05:30 350 7 gusting 9
2020-Jan-24 05:25 355 7 gusting 9
2020-Jan-24 05:20 355 8 gusting 9
2020-Jan-24 05:15 350 8 gusting 9
2020-Jan-24 05:10 355 8 gusting 10
2020-Jan-24 05:05 350 8 gusting 10
2020-Jan-24 05:00 350 8 gusting 10
2020-Jan-24 04:55 350 9 gusting 10
2020-Jan-24 04:50 350 8 gusting 10
2020-Jan-24 04:45 350 8 gusting 10
2020-Jan-24 04:40 350 8 gusting 10
2020-Jan-24 04:35 345 8 gusting 10
2020-Jan-24 04:30 345 8 gusting 10
2020-Jan-24 04:25 350 8 gusting 9
2020-Jan-24 04:20 350 8 gusting 9
2020-Jan-24 04:15 350 8 gusting 9
2020-Jan-24 04:10 355 8 gusting 9
2020-Jan-24 04:05 355 7 gusting 9
2020-Jan-24 04:00
2020-Jan-24 03:55 355 8 gusting 9
2020-Jan-24 03:50 350 6 gusting 9
2020-Jan-24 03:45 355 7 gusting 9
2020-Jan-24 03:40
2020-Jan-24 03:35
2020-Jan-24 03:30
2020-Jan-24 03:25
2020-Jan-24 03:20
2020-Jan-24 03:15 005 7 gusting 10
2020-Jan-24 03:10 010 8 gusting 11
2020-Jan-24 03:05 015 9 gusting 11
2020-Jan-24 03:00 015 9 gusting 11
2020-Jan-24 02:55 015 9 gusting 10
2020-Jan-24 02:50 015 9 gusting 10
2020-Jan-24 02:45 010 9 gusting 10
2020-Jan-24 02:40 005 9 gusting 10
2020-Jan-24 02:35 005 8 gusting 9
2020-Jan-24 02:30 005 8 gusting 9
2020-Jan-24 02:25
2020-Jan-24 02:20
2020-Jan-24 02:15
2020-Jan-24 02:10
2020-Jan-24 02:05 355 7 gusting 9
2020-Jan-24 02:00 355 8 gusting 10